sensor_id;sensor_type;location;lat;lon;timestamp;P1;durP1;ratioP1;P2;durP2;ratioP2
60917;SDS011;46792;38.854;-9.384;2023-04-03T00:01:07;4.95;;;2.00;;
60917;SDS011;46792;38.854;-9.384;2023-04-03T00:03:26;5.05;;;2.60;;
60917;SDS011;46792;38.854;-9.384;2023-04-03T00:05:27;5.55;;;2.53;;
60917;SDS011;46792;38.854;-9.384;2023-04-03T00:07:28;7.55;;;2.05;;
60917;SDS011;46792;38.854;-9.384;2023-04-03T00:09:28;4.15;;;2.00;;
60917;SDS011;46792;38.854;-9.384;2023-04-03T00:11:47;12.23;;;2.47;;
60917;SDS011;46792;38.854;-9.384;2023-04-03T00:13:48;6.20;;;2.00;;
60917;SDS011;46792;38.854;-9.384;2023-04-03T00:15:49;8.45;;;1.80;;
60917;SDS011;46792;38.854;-9.384;2023-04-03T00:17:49;8.18;;;2.08;;
60917;SDS011;46792;38.854;-9.384;2023-04-03T00:19:50;9.23;;;2.33;;
60917;SDS011;46792;38.854;-9.384;2023-04-03T00:24:10;4.55;;;2.20;;
60917;SDS011;46792;38.854;-9.384;2023-04-03T00:26:11;10.85;;;2.45;;
60917;SDS011;46792;38.854;-9.384;2023-04-03T00:28:13;9.43;;;2.13;;
60917;SDS011;46792;38.854;-9.384;2023-04-03T00:30:15;8.98;;;2.00;;
60917;SDS011;46792;38.854;-9.384;2023-04-03T00:32:17;7.35;;;2.20;;
60917;SDS011;46792;38.854;-9.384;2023-04-03T00:34:18;9.25;;;2.33;;
60917;SDS011;46792;38.854;-9.384;2023-04-03T00:36:20;8.27;;;2.65;;
60917;SDS011;46792;38.854;-9.384;2023-04-03T00:38:20;7.90;;;2.88;;
60917;SDS011;46792;38.854;-9.384;2023-04-03T00:40:22;10.98;;;2.08;;
60917;SDS011;46792;38.854;-9.384;2023-04-03T00:42:24;14.73;;;2.97;;
60917;SDS011;46792;38.854;-9.384;2023-04-03T00:46:28;6.13;;;2.65;;
60917;SDS011;46792;38.854;-9.384;2023-04-03T00:48:29;13.85;;;2.67;;
60917;SDS011;46792;38.854;-9.384;2023-04-03T00:50:34;7.90;;;2.65;;
60917;SDS011;46792;38.854;-9.384;2023-04-03T00:52:37;8.73;;;2.25;;
60917;SDS011;46792;38.854;-9.384;2023-04-03T00:54:58;8.80;;;2.25;;
60917;SDS011;46792;38.854;-9.384;2023-04-03T00:57:05;9.38;;;1.90;;
60917;SDS011;46792;38.854;-9.384;2023-04-03T00:59:09;6.05;;;2.03;;
60917;SDS011;46792;38.854;-9.384;2023-04-03T01:01:14;11.38;;;2.33;;
60917;SDS011;46792;38.854;-9.384;2023-04-03T01:03:18;16.55;;;2.30;;
60917;SDS011;46792;38.854;-9.384;2023-04-03T01:05:20;8.88;;;2.25;;
60917;SDS011;46792;38.854;-9.384;2023-04-03T01:07:23;5.80;;;2.20;;
60917;SDS011;46792;38.854;-9.384;2023-04-03T01:09:28;12.13;;;2.30;;
60917;SDS011;46792;38.854;-9.384;2023-04-03T01:11:29;8.05;;;2.42;;
60917;SDS011;46792;38.854;-9.384;2023-04-03T01:13:31;3.58;;;2.30;;
60917;SDS011;46792;38.854;-9.384;2023-04-03T01:15:33;8.10;;;2.70;;
60917;SDS011;46792;38.854;-9.384;2023-04-03T01:25:01;13.18;;;2.42;;
60917;SDS011;46792;38.854;-9.384;2023-04-03T01:27:03;6.78;;;2.10;;
60917;SDS011;46792;38.854;-9.384;2023-04-03T01:29:05;8.32;;;2.58;;
60917;SDS011;46792;38.854;-9.384;2023-04-03T01:33:21;6.43;;;2.20;;
60917;SDS011;46792;38.854;-9.384;2023-04-03T01:35:23;14.05;;;2.58;;
60917;SDS011;46792;38.854;-9.384;2023-04-03T01:37:42;9.05;;;2.30;;
60917;SDS011;46792;38.854;-9.384;2023-04-03T01:40:01;8.43;;;2.33;;
60917;SDS011;46792;38.854;-9.384;2023-04-03T01:42:03;5.78;;;2.10;;
60917;SDS011;46792;38.854;-9.384;2023-04-03T01:44:08;5.05;;;2.38;;
60917;SDS011;46792;38.854;-9.384;2023-04-03T01:46:09;6.53;;;2.20;;
60917;SDS011;46792;38.854;-9.384;2023-04-03T01:48:10;4.25;;;2.10;;
60917;SDS011;46792;38.854;-9.384;2023-04-03T01:50:11;6.55;;;2.97;;
60917;SDS011;46792;38.854;-9.384;2023-04-03T01:52:11;7.68;;;2.25;;
60917;SDS011;46792;38.854;-9.384;2023-04-03T01:54:17;7.65;;;2.70;;
60917;SDS011;46792;38.854;-9.384;2023-04-03T01:56:19;6.78;;;2.35;;
60917;SDS011;46792;38.854;-9.384;2023-04-03T01:58:20;4.43;;;2.25;;
60917;SDS011;46792;38.854;-9.384;2023-04-03T02:00:40;5.03;;;1.70;;
60917;SDS011;46792;38.854;-9.384;2023-04-03T02:02:58;8.32;;;2.40;;
60917;SDS011;46792;38.854;-9.384;2023-04-03T02:05:00;11.30;;;2.50;;
60917;SDS011;46792;38.854;-9.384;2023-04-03T02:07:01;11.25;;;2.65;;
60917;SDS011;46792;38.854;-9.384;2023-04-03T02:09:01;10.85;;;2.35;;
60917;SDS011;46792;38.854;-9.384;2023-04-03T02:11:21;4.97;;;2.08;;
60917;SDS011;46792;38.854;-9.384;2023-04-03T02:13:22;8.68;;;2.53;;
60917;SDS011;46792;38.854;-9.384;2023-04-03T02:15:23;6.60;;;2.65;;
60917;SDS011;46792;38.854;-9.384;2023-04-03T02:17:24;9.32;;;2.30;;
60917;SDS011;46792;38.854;-9.384;2023-04-03T02:19:25;5.85;;;2.40;;
60917;SDS011;46792;38.854;-9.384;2023-04-03T02:21:25;8.73;;;2.50;;
60917;SDS011;46792;38.854;-9.384;2023-04-03T02:23:27;7.45;;;2.13;;
60917;SDS011;46792;38.854;-9.384;2023-04-03T02:25:28;9.35;;;2.60;;
60917;SDS011;46792;38.854;-9.384;2023-04-03T02:27:30;4.05;;;2.30;;
60917;SDS011;46792;38.854;-9.384;2023-04-03T02:29:32;8.90;;;2.30;;
60917;SDS011;46792;38.854;-9.384;2023-04-03T02:31:32;10.02;;;2.33;;
60917;SDS011;46792;38.854;-9.384;2023-04-03T02:33:35;6.53;;;2.33;;
60917;SDS011;46792;38.854;-9.384;2023-04-03T02:35:38;3.40;;;2.00;;
60917;SDS011;46792;38.854;-9.384;2023-04-03T02:37:39;8.32;;;2.10;;
60917;SDS011;46792;38.854;-9.384;2023-04-03T02:39:58;6.07;;;2.45;;
60917;SDS011;46792;38.854;-9.384;2023-04-03T02:42:01;4.22;;;1.92;;
60917;SDS011;46792;38.854;-9.384;2023-04-03T02:44:03;5.57;;;2.50;;
60917;SDS011;46792;38.854;-9.384;2023-04-03T02:51:49;4.88;;;2.60;;
60917;SDS011;46792;38.854;-9.384;2023-04-03T02:53:51;4.40;;;2.30;;
60917;SDS011;46792;38.854;-9.384;2023-04-03T02:55:55;7.57;;;3.10;;
60917;SDS011;46792;38.854;-9.384;2023-04-03T02:58:14;5.03;;;2.42;;
60917;SDS011;46792;38.854;-9.384;2023-04-03T03:00:33;8.23;;;2.45;;
60917;SDS011;46792;38.854;-9.384;2023-04-03T03:02:34;7.68;;;2.40;;
60917;SDS011;46792;38.854;-9.384;2023-04-03T03:04:38;5.97;;;2.42;;
60917;SDS011;46792;38.854;-9.384;2023-04-03T03:09:16;4.03;;;2.50;;
60917;SDS011;46792;38.854;-9.384;2023-04-03T03:11:17;11.48;;;2.60;;
60917;SDS011;46792;38.854;-9.384;2023-04-03T03:13:18;7.38;;;2.35;;
60917;SDS011;46792;38.854;-9.384;2023-04-03T03:15:18;14.45;;;2.80;;
60917;SDS011;46792;38.854;-9.384;2023-04-03T03:17:19;6.40;;;2.50;;
60917;SDS011;46792;38.854;-9.384;2023-04-03T03:19:20;7.60;;;2.80;;
60917;SDS011;46792;38.854;-9.384;2023-04-03T03:21:21;6.15;;;2.78;;
60917;SDS011;46792;38.854;-9.384;2023-04-03T03:23:21;5.80;;;2.53;;
60917;SDS011;46792;38.854;-9.384;2023-04-03T03:25:23;13.38;;;2.88;;
60917;SDS011;46792;38.854;-9.384;2023-04-03T03:29:43;6.15;;;2.60;;
60917;SDS011;46792;38.854;-9.384;2023-04-03T03:31:44;6.60;;;3.00;;
60917;SDS011;46792;38.854;-9.384;2023-04-03T03:33:45;6.18;;;2.78;;
60917;SDS011;46792;38.854;-9.384;2023-04-03T03:35:46;7.03;;;2.75;;
60917;SDS011;46792;38.854;-9.384;2023-04-03T03:37:47;5.85;;;2.70;;
60917;SDS011;46792;38.854;-9.384;2023-04-03T03:39:47;6.28;;;2.70;;
60917;SDS011;46792;38.854;-9.384;2023-04-03T03:41:48;10.85;;;3.17;;
60917;SDS011;46792;38.854;-9.384;2023-04-03T03:43:52;10.25;;;3.08;;
60917;SDS011;46792;38.854;-9.384;2023-04-03T03:45:53;8.35;;;2.50;;
60917;SDS011;46792;38.854;-9.384;2023-04-03T03:47:56;8.85;;;2.67;;
60917;SDS011;46792;38.854;-9.384;2023-04-03T03:49:57;6.93;;;3.33;;
60917;SDS011;46792;38.854;-9.384;2023-04-03T03:51:58;11.77;;;3.22;;
60917;SDS011;46792;38.854;-9.384;2023-04-03T03:54:17;6.72;;;3.00;;
60917;SDS011;46792;38.854;-9.384;2023-04-03T03:56:36;5.30;;;2.83;;
60917;SDS011;46792;38.854;-9.384;2023-04-03T03:58:37;12.73;;;4.28;;
60917;SDS011;46792;38.854;-9.384;2023-04-03T04:00:38;5.65;;;2.78;;
60917;SDS011;46792;38.854;-9.384;2023-04-03T04:02:38;12.25;;;3.05;;
60917;SDS011;46792;38.854;-9.384;2023-04-03T04:04:39;9.55;;;3.05;;
60917;SDS011;46792;38.854;-9.384;2023-04-03T04:06:40;5.65;;;2.67;;
60917;SDS011;46792;38.854;-9.384;2023-04-03T04:08:43;7.45;;;3.20;;
60917;SDS011;46792;38.854;-9.384;2023-04-03T04:10:45;7.18;;;2.88;;
60917;SDS011;46792;38.854;-9.384;2023-04-03T04:13:04;7.15;;;3.38;;
60917;SDS011;46792;38.854;-9.384;2023-04-03T04:15:05;11.57;;;3.28;;
60917;SDS011;46792;38.854;-9.384;2023-04-03T04:17:07;6.82;;;3.33;;
60917;SDS011;46792;38.854;-9.384;2023-04-03T04:19:09;7.70;;;3.05;;
60917;SDS011;46792;38.854;-9.384;2023-04-03T04:21:11;9.77;;;3.22;;
60917;SDS011;46792;38.854;-9.384;2023-04-03T04:23:13;6.57;;;3.20;;
60917;SDS011;46792;38.854;-9.384;2023-04-03T04:25:14;6.28;;;2.63;;
60917;SDS011;46792;38.854;-9.384;2023-04-03T04:27:34;7.57;;;2.65;;
60917;SDS011;46792;38.854;-9.384;2023-04-03T04:29:35;9.57;;;2.70;;
60917;SDS011;46792;38.854;-9.384;2023-04-03T04:31:39;4.60;;;2.50;;
60917;SDS011;46792;38.854;-9.384;2023-04-03T04:33:40;9.18;;;3.25;;
60917;SDS011;46792;38.854;-9.384;2023-04-03T04:35:43;5.47;;;2.50;;
60917;SDS011;46792;38.854;-9.384;2023-04-03T04:37:44;8.30;;;2.95;;
60917;SDS011;46792;38.854;-9.384;2023-04-03T04:39:46;4.28;;;2.22;;
60917;SDS011;46792;38.854;-9.384;2023-04-03T04:41:46;5.40;;;2.35;;
60917;SDS011;46792;38.854;-9.384;2023-04-03T04:43:48;4.18;;;2.40;;
60917;SDS011;46792;38.854;-9.384;2023-04-03T04:45:57;3.40;;;2.15;;
60917;SDS011;46792;38.854;-9.384;2023-04-03T04:48:19;4.63;;;2.45;;
60917;SDS011;46792;38.854;-9.384;2023-04-03T04:50:38;6.32;;;2.20;;
60917;SDS011;46792;38.854;-9.384;2023-04-03T04:52:58;8.35;;;1.70;;
60917;SDS011;46792;38.854;-9.384;2023-04-03T04:55:18;5.18;;;2.42;;
60917;SDS011;46792;38.854;-9.384;2023-04-03T04:57:29;3.28;;;2.05;;
60917;SDS011;46792;38.854;-9.384;2023-04-03T04:59:32;4.13;;;1.73;;
60917;SDS011;46792;38.854;-9.384;2023-04-03T05:01:33;13.40;;;2.08;;
60917;SDS011;46792;38.854;-9.384;2023-04-03T05:03:42;3.78;;;2.75;;
60917;SDS011;46792;38.854;-9.384;2023-04-03T05:06:00;6.85;;;2.00;;
60917;SDS011;46792;38.854;-9.384;2023-04-03T05:08:04;4.20;;;2.35;;
60917;SDS011;46792;38.854;-9.384;2023-04-03T05:10:05;4.13;;;2.08;;
60917;SDS011;46792;38.854;-9.384;2023-04-03T05:12:25;5.38;;;2.33;;
60917;SDS011;46792;38.854;-9.384;2023-04-03T05:14:31;4.50;;;1.63;;
60917;SDS011;46792;38.854;-9.384;2023-04-03T05:16:37;5.32;;;2.38;;
60917;SDS011;46792;38.854;-9.384;2023-04-03T05:18:38;7.03;;;2.40;;
60917;SDS011;46792;38.854;-9.384;2023-04-03T05:20:57;8.48;;;4.30;;
60917;SDS011;46792;38.854;-9.384;2023-04-03T05:23:17;5.63;;;4.43;;
60917;SDS011;46792;38.854;-9.384;2023-04-03T05:25:19;4.32;;;3.10;;
60917;SDS011;46792;38.854;-9.384;2023-04-03T05:27:21;4.95;;;2.03;;
60917;SDS011;46792;38.854;-9.384;2023-04-03T05:29:27;5.18;;;2.20;;
60917;SDS011;46792;38.854;-9.384;2023-04-03T05:31:29;6.18;;;2.58;;
60917;SDS011;46792;38.854;-9.384;2023-04-03T05:33:30;5.15;;;2.15;;
60917;SDS011;46792;38.854;-9.384;2023-04-03T05:35:33;4.57;;;2.30;;
60917;SDS011;46792;38.854;-9.384;2023-04-03T05:37:40;5.68;;;2.17;;
60917;SDS011;46792;38.854;-9.384;2023-04-03T05:39:41;8.93;;;2.13;;
60917;SDS011;46792;38.854;-9.384;2023-04-03T05:41:41;6.97;;;3.45;;
60917;SDS011;46792;38.854;-9.384;2023-04-03T05:43:42;5.40;;;2.80;;
60917;SDS011;46792;38.854;-9.384;2023-04-03T05:45:44;4.88;;;2.67;;
60917;SDS011;46792;38.854;-9.384;2023-04-03T05:47:44;10.10;;;2.90;;
60917;SDS011;46792;38.854;-9.384;2023-04-03T05:50:04;4.32;;;2.55;;
60917;SDS011;46792;38.854;-9.384;2023-04-03T05:52:06;7.55;;;2.35;;
60917;SDS011;46792;38.854;-9.384;2023-04-03T05:59:34;4.95;;;2.05;;
60917;SDS011;46792;38.854;-9.384;2023-04-03T06:01:50;5.07;;;2.30;;
60917;SDS011;46792;38.854;-9.384;2023-04-03T06:03:51;6.75;;;2.08;;
60917;SDS011;46792;38.854;-9.384;2023-04-03T06:06:12;5.78;;;2.38;;
60917;SDS011;46792;38.854;-9.384;2023-04-03T06:08:14;10.17;;;1.77;;
60917;SDS011;46792;38.854;-9.384;2023-04-03T06:10:15;9.93;;;4.18;;
60917;SDS011;46792;38.854;-9.384;2023-04-03T06:12:16;5.43;;;2.75;;
60917;SDS011;46792;38.854;-9.384;2023-04-03T06:14:17;2.63;;;2.40;;
60917;SDS011;46792;38.854;-9.384;2023-04-03T06:16:18;6.82;;;2.38;;
60917;SDS011;46792;38.854;-9.384;2023-04-03T06:20:57;4.70;;;1.80;;
60917;SDS011;46792;38.854;-9.384;2023-04-03T06:22:59;7.68;;;2.40;;
60917;SDS011;46792;38.854;-9.384;2023-04-03T06:25:01;7.10;;;3.58;;
60917;SDS011;46792;38.854;-9.384;2023-04-03T06:27:02;8.43;;;2.80;;
60917;SDS011;46792;38.854;-9.384;2023-04-03T06:29:03;5.55;;;3.03;;
60917;SDS011;46792;38.854;-9.384;2023-04-03T06:31:04;8.48;;;3.08;;
60917;SDS011;46792;38.854;-9.384;2023-04-03T06:33:22;9.65;;;3.00;;
60917;SDS011;46792;38.854;-9.384;2023-04-03T06:35:23;4.93;;;2.25;;
60917;SDS011;46792;38.854;-9.384;2023-04-03T06:37:24;2.20;;;2.00;;
60917;SDS011;46792;38.854;-9.384;2023-04-03T06:42:04;12.57;;;3.80;;
60917;SDS011;46792;38.854;-9.384;2023-04-03T06:44:11;6.85;;;2.95;;
60917;SDS011;46792;38.854;-9.384;2023-04-03T06:46:32;13.63;;;3.40;;
60917;SDS011;46792;38.854;-9.384;2023-04-03T06:48:33;4.47;;;2.47;;
60917;SDS011;46792;38.854;-9.384;2023-04-03T06:50:34;7.60;;;2.28;;
60917;SDS011;46792;38.854;-9.384;2023-04-03T06:52:34;11.02;;;2.90;;
60917;SDS011;46792;38.854;-9.384;2023-04-03T06:54:35;5.63;;;2.75;;
60917;SDS011;46792;38.854;-9.384;2023-04-03T06:56:51;9.07;;;4.03;;
60917;SDS011;46792;38.854;-9.384;2023-04-03T06:58:52;6.22;;;3.17;;
60917;SDS011;46792;38.854;-9.384;2023-04-03T07:01:14;8.95;;;2.97;;
60917;SDS011;46792;38.854;-9.384;2023-04-03T07:03:16;10.02;;;3.00;;
60917;SDS011;46792;38.854;-9.384;2023-04-03T07:05:17;6.07;;;2.90;;
60917;SDS011;46792;38.854;-9.384;2023-04-03T07:07:18;12.80;;;3.45;;
60917;SDS011;46792;38.854;-9.384;2023-04-03T07:09:19;5.30;;;2.75;;
60917;SDS011;46792;38.854;-9.384;2023-04-03T07:11:20;9.45;;;2.65;;
60917;SDS011;46792;38.854;-9.384;2023-04-03T07:13:20;6.65;;;2.47;;
60917;SDS011;46792;38.854;-9.384;2023-04-03T07:15:39;4.75;;;2.42;;
60917;SDS011;46792;38.854;-9.384;2023-04-03T07:17:58;4.97;;;2.92;;
60917;SDS011;46792;38.854;-9.384;2023-04-03T07:19:59;6.60;;;2.83;;
60917;SDS011;46792;38.854;-9.384;2023-04-03T07:22:05;15.32;;;3.67;;
60917;SDS011;46792;38.854;-9.384;2023-04-03T07:24:05;13.98;;;3.53;;
60917;SDS011;46792;38.854;-9.384;2023-04-03T07:26:06;26.05;;;5.90;;
60917;SDS011;46792;38.854;-9.384;2023-04-03T07:28:08;40.95;;;8.00;;
60917;SDS011;46792;38.854;-9.384;2023-04-03T07:30:09;33.63;;;7.55;;
60917;SDS011;46792;38.854;-9.384;2023-04-03T07:32:10;30.85;;;7.72;;
60917;SDS011;46792;38.854;-9.384;2023-04-03T07:34:11;10.35;;;4.50;;
60917;SDS011;46792;38.854;-9.384;2023-04-03T07:36:15;22.40;;;4.57;;
60917;SDS011;46792;38.854;-9.384;2023-04-03T07:38:38;6.95;;;2.67;;
60917;SDS011;46792;38.854;-9.384;2023-04-03T07:40:57;6.13;;;2.55;;
60917;SDS011;46792;38.854;-9.384;2023-04-03T07:42:58;9.45;;;3.10;;
60917;SDS011;46792;38.854;-9.384;2023-04-03T07:44:59;5.10;;;2.53;;
60917;SDS011;46792;38.854;-9.384;2023-04-03T07:47:00;8.40;;;2.95;;
60917;SDS011;46792;38.854;-9.384;2023-04-03T07:49:00;13.77;;;2.88;;
60917;SDS011;46792;38.854;-9.384;2023-04-03T07:51:02;5.43;;;2.63;;
60917;SDS011;46792;38.854;-9.384;2023-04-03T07:53:04;5.65;;;2.58;;
60917;SDS011;46792;38.854;-9.384;2023-04-03T07:55:05;11.10;;;2.70;;
60917;SDS011;46792;38.854;-9.384;2023-04-03T07:57:05;7.13;;;3.10;;
60917;SDS011;46792;38.854;-9.384;2023-04-03T07:59:06;12.43;;;2.47;;
60917;SDS011;46792;38.854;-9.384;2023-04-03T08:01:26;14.60;;;3.78;;
60917;SDS011;46792;38.854;-9.384;2023-04-03T08:03:30;15.67;;;3.07;;
60917;SDS011;46792;38.854;-9.384;2023-04-03T08:05:30;6.38;;;2.47;;
60917;SDS011;46792;38.854;-9.384;2023-04-03T08:07:31;16.30;;;3.63;;
60917;SDS011;46792;38.854;-9.384;2023-04-03T08:09:32;23.92;;;3.30;;
60917;SDS011;46792;38.854;-9.384;2023-04-03T08:11:33;46.67;;;6.57;;
60917;SDS011;46792;38.854;-9.384;2023-04-03T08:13:33;71.57;;;6.57;;
60917;SDS011;46792;38.854;-9.384;2023-04-03T08:15:38;75.50;;;8.15;;
60917;SDS011;46792;38.854;-9.384;2023-04-03T08:17:38;129.32;;;10.98;;
60917;SDS011;46792;38.854;-9.384;2023-04-03T08:19:39;165.45;;;17.10;;
60917;SDS011;46792;38.854;-9.384;2023-04-03T08:21:40;131.20;;;11.70;;
60917;SDS011;46792;38.854;-9.384;2023-04-03T08:23:44;111.93;;;9.55;;
60917;SDS011;46792;38.854;-9.384;2023-04-03T08:25:44;105.78;;;9.15;;
60917;SDS011;46792;38.854;-9.384;2023-04-03T08:27:45;98.53;;;9.05;;
60917;SDS011;46792;38.854;-9.384;2023-04-03T08:29:46;69.97;;;7.85;;
60917;SDS011;46792;38.854;-9.384;2023-04-03T08:31:46;69.22;;;7.95;;
60917;SDS011;46792;38.854;-9.384;2023-04-03T08:33:48;74.78;;;9.30;;
60917;SDS011;46792;38.854;-9.384;2023-04-03T08:35:49;45.08;;;8.45;;
60917;SDS011;46792;38.854;-9.384;2023-04-03T08:37:50;19.65;;;4.00;;
60917;SDS011;46792;38.854;-9.384;2023-04-03T08:39:51;16.02;;;2.58;;
60917;SDS011;46792;38.854;-9.384;2023-04-03T08:41:51;14.05;;;2.60;;
60917;SDS011;46792;38.854;-9.384;2023-04-03T08:44:13;7.13;;;2.53;;
60917;SDS011;46792;38.854;-9.384;2023-04-03T08:46:22;4.82;;;1.83;;
60917;SDS011;46792;38.854;-9.384;2023-04-03T08:48:35;5.43;;;2.20;;
60917;SDS011;46792;38.854;-9.384;2023-04-03T08:50:59;8.00;;;2.33;;
60917;SDS011;46792;38.854;-9.384;2023-04-03T08:53:05;9.32;;;2.67;;
60917;SDS011;46792;38.854;-9.384;2023-04-03T08:57:29;9.48;;;2.05;;
60917;SDS011;46792;38.854;-9.384;2023-04-03T08:59:38;3.70;;;1.63;;
60917;SDS011;46792;38.854;-9.384;2023-04-03T09:01:40;6.72;;;1.85;;
60917;SDS011;46792;38.854;-9.384;2023-04-03T09:03:42;8.23;;;2.55;;
60917;SDS011;46792;38.854;-9.384;2023-04-03T09:07:59;14.00;;;2.95;;
60917;SDS011;46792;38.854;-9.384;2023-04-03T09:10:11;8.38;;;2.53;;
60917;SDS011;46792;38.854;-9.384;2023-04-03T09:14:31;11.43;;;2.47;;
60917;SDS011;46792;38.854;-9.384;2023-04-03T09:21:37;4.55;;;1.75;;
60917;SDS011;46792;38.854;-9.384;2023-04-03T09:23:43;3.65;;;1.77;;
60917;SDS011;46792;38.854;-9.384;2023-04-03T09:26:24;4.00;;;1.92;;
60917;SDS011;46792;38.854;-9.384;2023-04-03T09:28:28;4.63;;;1.83;;
60917;SDS011;46792;38.854;-9.384;2023-04-03T09:30:30;2.08;;;1.60;;
60917;SDS011;46792;38.854;-9.384;2023-04-03T09:32:31;3.58;;;1.50;;
60917;SDS011;46792;38.854;-9.384;2023-04-03T09:34:36;4.45;;;1.38;;
60917;SDS011;46792;38.854;-9.384;2023-04-03T09:36:43;1.83;;;1.40;;
60917;SDS011;46792;38.854;-9.384;2023-04-03T09:38:48;10.27;;;2.05;;
60917;SDS011;46792;38.854;-9.384;2023-04-03T09:41:21;7.57;;;1.45;;
60917;SDS011;46792;38.854;-9.384;2023-04-03T09:43:30;5.13;;;1.20;;
60917;SDS011;46792;38.854;-9.384;2023-04-03T09:45:33;9.10;;;1.30;;
60917;SDS011;46792;38.854;-9.384;2023-04-03T09:47:36;6.72;;;1.08;;
60917;SDS011;46792;38.854;-9.384;2023-04-03T09:49:37;6.20;;;1.10;;
60917;SDS011;46792;38.854;-9.384;2023-04-03T09:51:38;8.98;;;1.98;;
60917;SDS011;46792;38.854;-9.384;2023-04-03T09:53:41;6.15;;;1.20;;
60917;SDS011;46792;38.854;-9.384;2023-04-03T09:55:43;5.82;;;1.63;;
60917;SDS011;46792;38.854;-9.384;2023-04-03T09:57:45;2.92;;;1.40;;
60917;SDS011;46792;38.854;-9.384;2023-04-03T09:59:58;2.55;;;1.02;;
60917;SDS011;46792;38.854;-9.384;2023-04-03T10:04:18;11.75;;;3.83;;
60917;SDS011;46792;38.854;-9.384;2023-04-03T10:06:23;7.38;;;2.67;;
60917;SDS011;46792;38.854;-9.384;2023-04-03T10:08:29;4.38;;;2.10;;
60917;SDS011;46792;38.854;-9.384;2023-04-03T10:10:30;6.90;;;2.95;;
60917;SDS011;46792;38.854;-9.384;2023-04-03T10:12:31;5.60;;;2.60;;
60917;SDS011;46792;38.854;-9.384;2023-04-03T10:14:32;5.78;;;2.03;;
60917;SDS011;46792;38.854;-9.384;2023-04-03T10:18:52;6.68;;;2.67;;
60917;SDS011;46792;38.854;-9.384;2023-04-03T10:21:43;6.00;;;2.08;;
60917;SDS011;46792;38.854;-9.384;2023-04-03T10:26:54;7.03;;;2.05;;
60917;SDS011;46792;38.854;-9.384;2023-04-03T10:34:42;10.13;;;2.53;;
60917;SDS011;46792;38.854;-9.384;2023-04-03T10:41:16;4.82;;;2.75;;
60917;SDS011;46792;38.854;-9.384;2023-04-03T10:50:39;5.05;;;1.85;;
60917;SDS011;46792;38.854;-9.384;2023-04-03T10:53:13;6.30;;;1.98;;
60917;SDS011;46792;38.854;-9.384;2023-04-03T10:58:08;9.52;;;2.05;;
60917;SDS011;46792;38.854;-9.384;2023-04-03T11:00:30;9.02;;;1.95;;
60917;SDS011;46792;38.854;-9.384;2023-04-03T11:05:04;2.60;;;1.52;;
60917;SDS011;46792;38.854;-9.384;2023-04-03T11:07:15;3.78;;;1.30;;
60917;SDS011;46792;38.854;-9.384;2023-04-03T11:09:23;5.20;;;1.98;;
60917;SDS011;46792;38.854;-9.384;2023-04-03T11:11:29;7.07;;;1.58;;
60917;SDS011;46792;38.854;-9.384;2023-04-03T11:16:19;4.30;;;1.55;;
60917;SDS011;46792;38.854;-9.384;2023-04-03T11:18:27;5.50;;;1.80;;
60917;SDS011;46792;38.854;-9.384;2023-04-03T11:20:35;2.20;;;1.50;;
60917;SDS011;46792;38.854;-9.384;2023-04-03T11:22:41;6.80;;;1.50;;
60917;SDS011;46792;38.854;-9.384;2023-04-03T11:24:46;4.38;;;1.60;;
60917;SDS011;46792;38.854;-9.384;2023-04-03T11:27:19;2.38;;;1.45;;
60917;SDS011;46792;38.854;-9.384;2023-04-03T11:29:36;8.77;;;3.63;;
60917;SDS011;46792;38.854;-9.384;2023-04-03T11:36:23;3.22;;;1.23;;
60917;SDS011;46792;38.854;-9.384;2023-04-03T11:38:27;5.15;;;1.65;;
60917;SDS011;46792;38.854;-9.384;2023-04-03T11:40:32;4.65;;;1.80;;
60917;SDS011;46792;38.854;-9.384;2023-04-03T11:42:38;11.00;;;2.63;;
60917;SDS011;46792;38.854;-9.384;2023-04-03T11:44:40;9.88;;;2.65;;
60917;SDS011;46792;38.854;-9.384;2023-04-03T11:48:53;15.25;;;3.22;;
60917;SDS011;46792;38.854;-9.384;2023-04-03T11:50:57;12.00;;;2.70;;
60917;SDS011;46792;38.854;-9.384;2023-04-03T11:52:59;9.18;;;3.17;;
60917;SDS011;46792;38.854;-9.384;2023-04-03T11:57:23;13.50;;;2.58;;
60917;SDS011;46792;38.854;-9.384;2023-04-03T11:59:47;15.32;;;2.08;;
60917;SDS011;46792;38.854;-9.384;2023-04-03T12:01:56;23.27;;;3.45;;
60917;SDS011;46792;38.854;-9.384;2023-04-03T12:04:08;11.88;;;4.05;;
60917;SDS011;46792;38.854;-9.384;2023-04-03T12:10:32;16.17;;;3.88;;
60917;SDS011;46792;38.854;-9.384;2023-04-03T12:12:35;12.32;;;2.40;;
60917;SDS011;46792;38.854;-9.384;2023-04-03T12:14:39;8.40;;;2.67;;
60917;SDS011;46792;38.854;-9.384;2023-04-03T12:18:41;19.90;;;3.20;;
60917;SDS011;46792;38.854;-9.384;2023-04-03T12:20:53;13.55;;;2.60;;
60917;SDS011;46792;38.854;-9.384;2023-04-03T12:28:19;10.45;;;2.75;;
60917;SDS011;46792;38.854;-9.384;2023-04-03T12:30:25;11.18;;;2.25;;
60917;SDS011;46792;38.854;-9.384;2023-04-03T12:42:03;7.18;;;1.67;;
60917;SDS011;46792;38.854;-9.384;2023-04-03T12:47:23;6.72;;;1.27;;
60917;SDS011;46792;38.854;-9.384;2023-04-03T12:51:42;8.95;;;2.13;;
60917;SDS011;46792;38.854;-9.384;2023-04-03T12:53:45;6.35;;;1.58;;
60917;SDS011;46792;38.854;-9.384;2023-04-03T12:55:47;6.57;;;1.50;;
60917;SDS011;46792;38.854;-9.384;2023-04-03T12:57:47;13.60;;;1.73;;
60917;SDS011;46792;38.854;-9.384;2023-04-03T12:59:49;11.25;;;1.63;;
60917;SDS011;46792;38.854;-9.384;2023-04-03T13:01:53;14.07;;;3.13;;
60917;SDS011;46792;38.854;-9.384;2023-04-03T13:03:56;9.55;;;1.75;;
60917;SDS011;46792;38.854;-9.384;2023-04-03T13:06:01;9.45;;;2.05;;
60917;SDS011;46792;38.854;-9.384;2023-04-03T13:08:05;12.32;;;1.95;;
60917;SDS011;46792;38.854;-9.384;2023-04-03T13:10:28;4.20;;;1.35;;
60917;SDS011;46792;38.854;-9.384;2023-04-03T13:12:29;8.73;;;1.48;;
60917;SDS011;46792;38.854;-9.384;2023-04-03T13:14:30;4.03;;;1.67;;
60917;SDS011;46792;38.854;-9.384;2023-04-03T13:19:19;7.65;;;1.65;;
60917;SDS011;46792;38.854;-9.384;2023-04-03T13:21:21;9.65;;;1.75;;
60917;SDS011;46792;38.854;-9.384;2023-04-03T13:23:34;8.70;;;1.50;;
60917;SDS011;46792;38.854;-9.384;2023-04-03T13:25:40;7.13;;;1.67;;
60917;SDS011;46792;38.854;-9.384;2023-04-03T13:27:43;7.00;;;1.98;;
60917;SDS011;46792;38.854;-9.384;2023-04-03T13:29:48;5.40;;;1.20;;
60917;SDS011;46792;38.854;-9.384;2023-04-03T13:31:52;4.80;;;1.48;;
60917;SDS011;46792;38.854;-9.384;2023-04-03T13:36:30;12.65;;;2.25;;
60917;SDS011;46792;38.854;-9.384;2023-04-03T13:38:34;8.00;;;1.33;;
60917;SDS011;46792;38.854;-9.384;2023-04-03T13:40:46;5.68;;;2.30;;
60917;SDS011;46792;38.854;-9.384;2023-04-03T13:43:05;6.20;;;1.50;;
60917;SDS011;46792;38.854;-9.384;2023-04-03T13:45:18;4.38;;;1.65;;
60917;SDS011;46792;38.854;-9.384;2023-04-03T13:47:36;3.60;;;1.75;;
60917;SDS011;46792;38.854;-9.384;2023-04-03T13:49:41;10.68;;;2.38;;
60917;SDS011;46792;38.854;-9.384;2023-04-03T13:52:02;8.85;;;2.75;;
60917;SDS011;46792;38.854;-9.384;2023-04-03T13:54:29;17.30;;;2.22;;
60917;SDS011;46792;38.854;-9.384;2023-04-03T13:56:37;14.65;;;2.38;;
60917;SDS011;46792;38.854;-9.384;2023-04-03T13:58:52;4.65;;;1.00;;
60917;SDS011;46792;38.854;-9.384;2023-04-03T14:00:59;2.60;;;0.98;;
60917;SDS011;46792;38.854;-9.384;2023-04-03T14:03:21;12.23;;;2.03;;
60917;SDS011;46792;38.854;-9.384;2023-04-03T14:05:32;6.07;;;1.55;;
60917;SDS011;46792;38.854;-9.384;2023-04-03T14:07:33;35.33;;;3.40;;
60917;SDS011;46792;38.854;-9.384;2023-04-03T14:09:34;17.80;;;2.30;;
60917;SDS011;46792;38.854;-9.384;2023-04-03T14:11:35;5.57;;;1.45;;
60917;SDS011;46792;38.854;-9.384;2023-04-03T14:13:36;5.95;;;1.70;;
60917;SDS011;46792;38.854;-9.384;2023-04-03T14:15:36;5.15;;;1.92;;
60917;SDS011;46792;38.854;-9.384;2023-04-03T14:17:37;6.85;;;1.75;;
60917;SDS011;46792;38.854;-9.384;2023-04-03T14:19:38;3.42;;;1.05;;
60917;SDS011;46792;38.854;-9.384;2023-04-03T14:21:40;7.68;;;2.05;;
60917;SDS011;46792;38.854;-9.384;2023-04-03T14:26:21;1.67;;;1.05;;